Flight Track Log - Related Links

Times and Time Zones

All times are in EDT time to prevent confusion due to time zone crossing. See the SKW5516 flight status page for this flight to view local times or setup timezone preferences in your user account.

Time Position Orientation Groundspeed Altitude Reporting Facility
EDT Latitude Longitude Course Direction KTS MPH feet Rate Location/Type
Wed 05:41:00 PM 36.6001 -119.6342 159° South  Level Estimated
Wed 05:42:00 PM 36.5414 -119.6061 159° South  Level Estimated
Wed 05:43:00 PM 36.4826 -119.5781 159° South  Level Estimated
Wed 05:44:00 PM 36.4238 -119.5501 159° South  Level Estimated
Wed 05:45:00 PM 36.3650 -119.5221 159° South  Level Estimated
Wed 05:46:00 PM 36.3062 -119.4942 159° South  Level Estimated
Wed 05:47:00 PM 36.2474 -119.4664 159° South  Level Estimated
Wed 05:48:00 PM 36.1886 -119.4386 159° South  Level Estimated
Wed 05:49:00 PM 36.1298 -119.4108 159° South  Level Estimated
Wed 05:50:00 PM 36.0709 -119.3830 159° South  Level Estimated
Wed 05:51:00 PM 36.0121 -119.3553 159° South  Level Estimated
Wed 05:52:00 PM 35.9533 -119.3277 159° South  Level Estimated
Wed 05:53:00 PM 35.8944 -119.3001 159° South  Level Estimated
Wed 05:54:00 PM 35.8356 -119.2725 159° South  Level Estimated
Wed 05:55:00 PM 35.7767 -119.2450 159° South  Level Estimated
Wed 05:56:00 PM 35.7178 -119.2175 159° South  Level Estimated
Wed 05:57:00 PM 35.6590 -119.1900 159° South  Level Estimated
Wed 05:58:00 PM 35.6001 -119.1626 159° South  Level Estimated
Wed 05:59:00 PM 35.5412 -119.1352 159° South  Level Estimated
Wed 06:00:00 PM 35.4823 -119.1079 159° South  Level Estimated
Wed 06:01:00 PM 35.4234 -119.0806 159° South  Level Estimated
Wed 06:02:00 PM 35.3645 -119.0534 159° South  Level Estimated
Wed 06:03:00 PM 35.3056 -119.0262 159° South  Level Estimated
Wed 06:04:00 PM 35.2467 -118.9990 159° South  Level Estimated
Wed 06:05:00 PM 35.1878 -118.9719 159° South  Level Estimated
Wed 06:06:00 PM 35.1288 -118.9448 159° South  Level Estimated
Wed 06:07:00 PM 35.0699 -118.9177 159° South  Level Estimated
Wed 06:08:00 PM 35.0110 -118.8907 159° South  Level Estimated
Wed 06:09:00 PM 34.9520 -118.8637 159° South  Level Estimated
Wed 06:10:00 PM 34.8931 -118.8368 159° South  Level Estimated
Wed 06:11:00 PM 34.8341 -118.8099 159° South  Level Estimated
Wed 06:12:00 PM 34.7752 -118.7831 159° South  Level Estimated
Wed 06:13:00 PM 34.7162 -118.7562 160° South  Level Estimated
Wed 06:14:00 PM 34.6572 -118.7294 160° South  Level Estimated
Wed 06:15:00 PM 34.5983 -118.7027 160° South  Level Estimated
Wed 06:16:00 PM 34.5393 -118.6760 160° South  Level Estimated
Wed 06:17:00 PM 34.4803 -118.6493 160° South  Level Estimated
Wed 06:18:00 PM 34.4213 -118.6227 160° South  Level Estimated
Wed 06:19:00 PM 34.3623 -118.5961 160° South  Level Estimated
Wed 06:20:00 PM 34.3033 -118.5696 160° South  Level Estimated
Wed 06:21:00 PM 34.2443 -118.5430 160° South  Level Estimated
Wed 06:22:00 PM 34.1852 -118.5166 160° South  Level Estimated
Wed 06:23:00 PM 34.1262 -118.4901 160° South  Level Estimated
Wed 06:24:00 PM 34.0672 -118.4637 160° South  Level Estimated
Wed 06:25:00 PM 34.0081 -118.4373 160° South  Level Estimated
Wed 06:26:00 PM 33.9491 -118.4110 160° South  Level Estimated
Wed 06:27:00 PM 33.9425 -118.4081 160° South  Level Estimated
Wed 06:28:00 PM 33.9425 -118.4081 164° South  Level Estimated
Wed 06:29:00 PM 33.9425 -118.4081 164° South  Level Estimated

Login

Don't have an account? Register now (free) for customized features, flight alerts, and more!